createdAt,value
2018-09-17T00:00:44.127Z,973.05
2018-09-17T00:01:54.004Z,973.05
2018-09-17T00:03:04.147Z,973.06
2018-09-17T00:04:13.723Z,973.05
2018-09-17T00:05:23.627Z,973.04
2018-09-17T00:06:33.483Z,973.03
2018-09-17T00:07:43.065Z,973.03
2018-09-17T00:08:53.198Z,973
2018-09-17T00:10:02.775Z,972.99
2018-09-17T00:11:12.630Z,973.01
2018-09-17T00:12:22.485Z,973.02
2018-09-17T00:13:32.076Z,972.94
2018-09-17T00:14:41.936Z,972.98
2018-09-17T00:15:51.788Z,972.96
2018-09-17T00:17:01.416Z,972.94
2018-09-17T00:18:11.544Z,972.95
2018-09-17T00:19:21.669Z,972.93
2018-09-17T00:20:31.796Z,972.87
2018-09-17T00:21:41.645Z,972.86
2018-09-17T00:22:51.892Z,972.93
2018-09-17T00:24:01.748Z,972.96
2018-09-17T00:25:11.324Z,972.99
2018-09-17T00:26:21.470Z,973.01
2018-09-17T00:27:31.603Z,973.05
2018-09-17T00:28:41.782Z,973.09
2018-09-17T00:29:51.632Z,973.13
2018-09-17T00:31:01.760Z,973.15
2018-09-17T00:32:11.895Z,973.17
2018-09-17T00:33:21.750Z,973.12
2018-09-17T00:34:31.871Z,973.08
2018-09-17T00:35:41.723Z,972.99
2018-09-17T00:36:51.580Z,973.06
2018-09-17T00:38:01.435Z,973.05
2018-09-17T00:39:11.011Z,973.08
2018-09-17T00:40:21.140Z,973.1
2018-09-17T00:41:31.268Z,973.07
2018-09-17T00:42:41.120Z,973.03
2018-09-17T00:43:51.299Z,973.05
2018-09-17T00:45:01.164Z,973.07
2018-09-17T00:46:10.748Z,973.07
2018-09-17T00:47:20.874Z,973.1
2018-09-17T00:48:30.725Z,973.08
2018-09-17T00:49:40.850Z,973.12
2018-09-17T00:50:50.983Z,973.17
2018-09-17T00:52:01.110Z,973.16
2018-09-17T00:53:10.965Z,973.17
2018-09-17T00:54:20.816Z,973.12
2018-09-17T00:55:30.124Z,973.12
2018-09-17T00:56:40.254Z,973.12
2018-09-17T00:57:50.239Z,972.95
2018-09-17T00:59:01.120Z,972.93
2018-09-17T01:00:11.268Z,972.9
2018-09-17T01:01:21.400Z,972.96
2018-09-17T01:02:31.257Z,973
2018-09-17T01:03:41.160Z,972.98
2018-09-17T01:04:51.050Z,973.05
2018-09-17T01:06:01.185Z,973.02
2018-09-17T01:07:10.545Z,973.04
2018-09-17T01:08:20.676Z,973.05
2018-09-17T01:09:30.255Z,973.02
2018-09-17T01:10:40.387Z,973.02
2018-09-17T01:11:50.244Z,972.94
2018-09-17T01:13:00.385Z,972.91
2018-09-17T01:14:10.247Z,972.94
2018-09-17T01:15:20.379Z,972.91
2018-09-17T01:16:30.522Z,972.96
2018-09-17T01:17:40.652Z,972.97
2018-09-17T01:18:50.236Z,973.01
2018-09-17T01:20:00.361Z,972.97
2018-09-17T01:21:10.265Z,972.98
2018-09-17T01:22:19.843Z,973.04
2018-09-17T01:23:29.969Z,973.08
2018-09-17T01:24:40.098Z,973.11
2018-09-17T01:25:49.965Z,973.14
2018-09-17T01:26:59.541Z,973.13
2018-09-17T01:28:09.672Z,973.16
2018-09-17T01:29:19.525Z,973.09
2018-09-17T01:30:29.170Z,973.13
2018-09-17T01:31:39.460Z,973.06
2018-09-17T01:32:49.409Z,973.09
2018-09-17T01:33:59.538Z,973.02
2018-09-17T01:35:09.681Z,973.01
2018-09-17T01:36:19.810Z,973
2018-09-17T01:37:29.679Z,973.01
2018-09-17T01:38:39.321Z,973
2018-09-17T01:39:49.457Z,973.15
2018-09-17T01:40:59.307Z,973.14
2018-09-17T01:42:09.165Z,973.2
2018-09-17T01:43:19.300Z,973.17
2018-09-17T01:44:29.153Z,973.16
2018-09-17T01:45:39.281Z,973.15
2018-09-17T01:46:49.409Z,973.12
2018-09-17T01:47:59.599Z,973.16
2018-09-17T01:49:09.455Z,973.11
2018-09-17T01:50:19.579Z,973.11
2018-09-17T01:51:29.162Z,973.14
2018-09-17T01:52:39.291Z,973.15
2018-09-17T01:53:49.423Z,973.12
2018-09-17T01:54:59.549Z,973.15
2018-09-17T01:56:09.406Z,973.19
2018-09-17T01:57:18.994Z,973.19
2018-09-17T01:58:28.852Z,973.24
2018-09-17T01:59:38.977Z,973.2
2018-09-17T02:00:49.108Z,973.16
2018-09-17T02:01:59.287Z,973.21
2018-09-17T02:03:08.317Z,973.17
2018-09-17T02:04:18.465Z,973.18
2018-09-17T02:05:28.318Z,973.21
2018-09-17T02:06:38.446Z,973.22
2018-09-17T02:07:48.572Z,973.22
2018-09-17T02:08:58.516Z,973.22
2018-09-17T02:10:08.857Z,973.22
2018-09-17T02:11:18.711Z,973.2
2018-09-17T02:12:28.568Z,973.19
2018-09-17T02:13:38.692Z,973.22
2018-09-17T02:14:48.824Z,973.2
2018-09-17T02:15:58.954Z,973.19
2018-09-17T02:17:08.821Z,973.16
2018-09-17T02:18:18.682Z,973.18
2018-09-17T02:19:28.309Z,973.18
2018-09-17T02:20:38.453Z,973.22
2018-09-17T02:21:48.586Z,973.19
2018-09-17T02:22:58.715Z,973.22
2018-09-17T02:24:08.568Z,973.21
2018-09-17T02:25:18.431Z,973.24
2018-09-17T02:26:28.568Z,973.23
2018-09-17T02:27:38.698Z,973.21
2018-09-17T02:28:48.561Z,973.22
2018-09-17T02:29:58.138Z,973.24
2018-09-17T02:31:07.773Z,973.24
2018-09-17T02:32:17.919Z,973.24
2018-09-17T02:33:28.053Z,973.23
2018-09-17T02:34:37.917Z,973.27
2018-09-17T02:35:47.224Z,973.29
2018-09-17T02:36:57.408Z,973.34
2018-09-17T02:38:07.538Z,973.32
2018-09-17T02:39:17.125Z,973.33
2018-09-17T02:40:27.047Z,973.35
2018-09-17T02:41:37.183Z,973.37
2018-09-17T02:42:47.317Z,973.38
2018-09-17T02:43:57.460Z,973.41
2018-09-17T02:45:07.316Z,973.35
2018-09-17T02:46:17.507Z,973.36
2018-09-17T02:47:26.811Z,973.38
2018-09-17T02:48:36.967Z,973.35
2018-09-17T02:49:46.820Z,973.39
2018-09-17T02:50:56.674Z,973.44
2018-09-17T02:52:06.607Z,973.42
2018-09-17T02:53:16.191Z,973.42
2018-09-17T02:54:26.524Z,973.44
2018-09-17T02:55:36.396Z,973.4
2018-09-17T02:56:46.521Z,973.4
2018-09-17T02:57:56.105Z,973.45
2018-09-17T02:59:05.958Z,973.45
2018-09-17T03:00:16.138Z,973.35
2018-09-17T03:01:26.020Z,973.36
2018-09-17T03:02:36.153Z,973.41
2018-09-17T03:03:46.006Z,973.38
2018-09-17T03:04:56.136Z,973.4
2018-09-17T03:06:06.270Z,973.35
2018-09-17T03:07:16.395Z,973.31
2018-09-17T03:08:26.521Z,973.32
2018-09-17T03:09:36.388Z,973.31
2018-09-17T03:10:46.263Z,973.35
2018-09-17T03:11:56.397Z,973.32
2018-09-17T03:13:06.248Z,973.34
2018-09-17T03:14:16.104Z,973.41
2018-09-17T03:15:25.981Z,973.45
2018-09-17T03:16:35.845Z,973.45
2018-09-17T03:17:45.753Z,973.54
2018-09-17T03:18:55.877Z,973.49
2018-09-17T03:20:05.730Z,973.46
2018-09-17T03:21:15.319Z,973.39
2018-09-17T03:22:25.453Z,973.35
2018-09-17T03:23:35.088Z,973.36
2018-09-17T03:24:45.232Z,973.38
2018-09-17T03:25:54.542Z,973.48
2018-09-17T03:27:04.121Z,973.49
2018-09-17T03:28:14.252Z,973.54
2018-09-17T03:29:24.154Z,973.56
2018-09-17T03:30:34.010Z,973.64
2018-09-17T03:31:43.910Z,973.61
2018-09-17T03:32:53.781Z,973.54
2018-09-17T03:34:03.912Z,973.57
2018-09-17T03:35:13.820Z,973.54
2018-09-17T03:36:23.966Z,973.52
2018-09-17T03:37:34.107Z,973.52
2018-09-17T03:38:44.250Z,973.6
2018-09-17T03:39:54.404Z,973.61
2018-09-17T03:41:03.990Z,973.57
2018-09-17T03:42:13.573Z,973.63
2018-09-17T03:43:23.157Z,973.64
2018-09-17T03:44:32.466Z,973.7
2018-09-17T03:45:42.322Z,973.75
2018-09-17T03:46:52.257Z,973.79
2018-09-17T03:48:02.503Z,973.83
2018-09-17T03:49:12.363Z,973.97
2018-09-17T03:50:22.273Z,974.07
2018-09-17T03:51:32.130Z,974.08
2018-09-17T03:52:41.984Z,974.1
2018-09-17T03:53:52.115Z,974.07
2018-09-17T03:55:01.691Z,974.07
2018-09-17T03:56:11.544Z,974.03
2018-09-17T03:57:21.674Z,974.11
2018-09-17T03:58:31.860Z,974.14
2018-09-17T03:59:41.720Z,974.16
2018-09-17T04:00:51.581Z,974.14
2018-09-17T04:02:01.709Z,974.09
2018-09-17T04:03:11.571Z,974.03
2018-09-17T04:04:21.253Z,973.99
2018-09-17T04:05:31.112Z,974.08
2018-09-17T04:06:41.261Z,974.05
2018-09-17T04:07:51.118Z,974.11
2018-09-17T04:09:01.244Z,974.06
2018-09-17T04:10:11.494Z,974.05
2018-09-17T04:11:21.350Z,974.07
2018-09-17T04:12:31.478Z,974.14
2018-09-17T04:13:41.333Z,974.13
2018-09-17T04:14:51.469Z,974.1
2018-09-17T04:16:01.055Z,974.1
2018-09-17T04:17:11.190Z,974.11
2018-09-17T04:18:21.051Z,974.1
2018-09-17T04:19:31.178Z,974.2
2018-09-17T04:20:41.309Z,974.18
2018-09-17T04:21:51.157Z,974.12
2018-09-17T04:23:01.032Z,974.14
2018-09-17T04:24:10.885Z,974.09
2018-09-17T04:25:20.466Z,974.11
2018-09-17T04:26:30.603Z,974.16
2018-09-17T04:27:40.466Z,974.17
2018-09-17T04:28:50.324Z,974.15
2018-09-17T04:30:00.465Z,974.23
2018-09-17T04:31:09.772Z,974.29
2018-09-17T04:32:19.900Z,974.32
2018-09-17T04:33:29.806Z,974.43
2018-09-17T04:34:39.946Z,974.4
2018-09-17T04:35:49.528Z,974.47
2018-09-17T04:36:59.654Z,974.49
2018-09-17T04:38:08.966Z,974.49
2018-09-17T04:39:18.868Z,974.46
2018-09-17T04:40:28.451Z,974.37
2018-09-17T04:41:38.624Z,974.36
2018-09-17T04:42:48.472Z,974.39
2018-09-17T04:43:58.611Z,974.43
2018-09-17T04:45:08.515Z,974.47
2018-09-17T04:46:18.646Z,974.42
2018-09-17T04:47:28.512Z,974.41
2018-09-17T04:48:38.645Z,974.46
2018-09-17T04:49:48.790Z,974.5
2018-09-17T04:50:58.147Z,974.68
2018-09-17T04:52:08.291Z,974.64
2018-09-17T04:53:18.141Z,974.66
2018-09-17T04:54:27.993Z,974.67
2018-09-17T04:55:37.851Z,974.69
2018-09-17T04:56:48.028Z,974.68
2018-09-17T04:57:58.157Z,974.73
2018-09-17T04:59:07.733Z,974.78
2018-09-17T05:00:17.874Z,974.71
2018-09-17T05:01:28.005Z,974.61
2018-09-17T05:02:38.178Z,974.62
2018-09-17T05:03:48.313Z,974.53
2018-09-17T05:04:58.168Z,974.51
2018-09-17T05:06:08.293Z,974.62
2018-09-17T05:07:18.536Z,974.64
2018-09-17T05:08:29.000Z,974.62
2018-09-17T05:09:39.135Z,974.6
2018-09-17T05:10:48.984Z,974.58
2018-09-17T05:11:59.126Z,974.64
2018-09-17T05:13:09.301Z,974.64
2018-09-17T05:14:20.371Z,974.68
2018-09-17T05:15:30.504Z,974.7
2018-09-17T05:16:40.370Z,974.73
2018-09-17T05:17:50.497Z,974.72
2018-09-17T05:19:00.627Z,974.75
2018-09-17T05:20:10.806Z,974.72
2018-09-17T05:21:20.108Z,974.67
2018-09-17T05:22:29.685Z,974.69
2018-09-17T05:23:39.272Z,974.7
2018-09-17T05:24:49.126Z,974.73
2018-09-17T05:25:59.033Z,974.82
2018-09-17T05:27:08.889Z,974.83
2018-09-17T05:28:19.014Z,974.82
2018-09-17T05:29:29.228Z,974.78
2018-09-17T05:30:38.812Z,974.75
2018-09-17T05:31:48.995Z,974.79
2018-09-17T05:32:59.124Z,974.76
2018-09-17T05:34:08.971Z,974.83
2018-09-17T05:35:19.100Z,974.88
2018-09-17T05:36:28.962Z,974.85
2018-09-17T05:37:39.142Z,974.86
2018-09-17T05:38:49.274Z,974.88
2018-09-17T05:39:59.397Z,974.96
2018-09-17T05:41:09.253Z,974.97
2018-09-17T05:42:19.105Z,975
2018-09-17T05:43:29.234Z,975.02
2018-09-17T05:44:39.370Z,975.01
2018-09-17T05:45:49.497Z,975.07
2018-09-17T05:46:59.617Z,975.08
2018-09-17T05:48:09.484Z,975.11
2018-09-17T05:49:19.335Z,975.09
2018-09-17T05:50:28.906Z,975.1
2018-09-17T05:51:39.034Z,975.08
2018-09-17T05:52:48.897Z,975.08
2018-09-17T05:53:59.030Z,975.11
2018-09-17T05:55:08.899Z,975.14
2018-09-17T05:56:19.019Z,975.15
2018-09-17T05:57:28.602Z,975.18
2018-09-17T05:58:38.729Z,975.15
2018-09-17T05:59:48.584Z,975.2
2018-09-17T06:00:58.211Z,975.27
2018-09-17T06:02:08.070Z,975.26
2018-09-17T06:03:18.200Z,975.18
2018-09-17T06:04:28.056Z,975.28
2018-09-17T06:05:38.251Z,975.31
2018-09-17T06:06:48.800Z,975.34
2018-09-17T06:07:59.251Z,975.51
2018-09-17T06:09:09.101Z,975.65
2018-09-17T06:10:18.958Z,975.62
2018-09-17T06:11:29.083Z,975.73
2018-09-17T06:12:39.334Z,975.73
2018-09-17T06:13:49.189Z,975.69
2018-09-17T06:14:59.040Z,975.78
2018-09-17T06:16:08.622Z,975.83
2018-09-17T06:17:18.498Z,975.8
2018-09-17T06:18:29.034Z,975.8
2018-09-17T06:19:39.167Z,975.79
2018-09-17T06:20:49.299Z,975.83
2018-09-17T06:21:59.147Z,975.87
2018-09-17T06:23:09.011Z,975.82
2018-09-17T06:24:19.546Z,975.81
2018-09-17T06:25:28.845Z,975.73
2018-09-17T06:26:38.511Z,975.89
2018-09-17T06:27:48.876Z,975.82
2018-09-17T06:28:59.041Z,975.82
2018-09-17T06:30:08.958Z,975.75
2018-09-17T06:31:19.087Z,975.75
2018-09-17T06:32:29.209Z,975.7
2018-09-17T06:33:39.062Z,975.74
2018-09-17T06:34:48.910Z,975.76
2018-09-17T06:35:58.676Z,975.74
2018-09-17T06:37:08.669Z,975.74
2018-09-17T06:38:18.520Z,975.8
2018-09-17T06:39:28.096Z,975.76
2018-09-17T06:40:37.958Z,975.75
2018-09-17T06:41:48.129Z,975.84
2018-09-17T06:42:57.995Z,975.82
2018-09-17T06:44:07.904Z,975.91
2018-09-17T06:45:17.756Z,975.89
2018-09-17T06:46:27.068Z,975.93
2018-09-17T06:47:37.240Z,975.97
2018-09-17T06:48:46.554Z,975.94
2018-09-17T06:49:56.680Z,975.98
2018-09-17T06:51:06.253Z,976.07
2018-09-17T06:52:15.828Z,976.14
2018-09-17T06:53:26.000Z,976.09
2018-09-17T06:54:36.261Z,976.14
2018-09-17T06:55:46.111Z,976.09
2018-09-17T06:56:56.241Z,976.21
2018-09-17T06:58:06.093Z,976.24
2018-09-17T06:59:15.714Z,976.27
2018-09-17T07:00:25.569Z,976.3
2018-09-17T07:01:35.422Z,976.35
2018-09-17T07:02:45.272Z,976.34
2018-09-17T07:03:54.848Z,976.35
2018-09-17T07:05:04.757Z,976.45
2018-09-17T07:06:14.926Z,976.46
2018-09-17T07:07:25.260Z,976.43
2018-09-17T07:08:35.384Z,976.44
2018-09-17T07:09:45.507Z,976.57
2018-09-17T07:10:55.679Z,976.54
2018-09-17T07:12:05.803Z,976.51
2018-09-17T07:13:15.658Z,976.5
2018-09-17T07:14:25.232Z,976.48
2018-09-17T07:15:35.081Z,976.52
2018-09-17T07:16:45.289Z,976.5
2018-09-17T07:17:55.196Z,976.48
2018-09-17T07:19:04.544Z,976.6
2018-09-17T07:20:14.667Z,976.49
2018-09-17T07:21:24.519Z,976.58
2018-09-17T07:22:34.143Z,976.59
2018-09-17T07:23:44.301Z,976.59
2018-09-17T07:24:54.151Z,976.54
2018-09-17T07:26:04.281Z,976.59
2018-09-17T07:27:13.859Z,976.61
2018-09-17T07:28:24.037Z,976.65
2018-09-17T07:29:33.610Z,976.63
2018-09-17T07:30:43.187Z,976.73
2018-09-17T07:31:53.307Z,976.73
2018-09-17T07:33:03.432Z,976.75
2018-09-17T07:34:13.333Z,976.73
2018-09-17T07:35:23.188Z,976.78
2018-09-17T07:36:33.145Z,976.75
2018-09-17T07:37:43.659Z,976.83
2018-09-17T07:38:53.518Z,976.86
2018-09-17T07:40:03.477Z,976.84
2018-09-17T07:41:13.332Z,976.87
2018-09-17T07:42:23.456Z,976.98
2018-09-17T07:43:33.041Z,977.07
2018-09-17T07:44:43.164Z,977.13
2018-09-17T07:45:53.358Z,977.13
2018-09-17T07:47:03.486Z,977.15
2018-09-17T07:48:13.606Z,977.13
2018-09-17T07:49:23.735Z,977.1
2018-09-17T07:50:33.587Z,977.18
2018-09-17T07:51:43.762Z,977.18
2018-09-17T07:52:53.343Z,977.21
2018-09-17T07:54:03.684Z,977.26
2018-09-17T07:55:13.536Z,977.26
2018-09-17T07:56:23.662Z,977.31
2018-09-17T07:57:33.010Z,977.23
2018-09-17T07:58:42.584Z,977.13
2018-09-17T07:59:52.870Z,977.16
2018-09-17T08:01:02.995Z,977.19
2018-09-17T08:02:12.572Z,977.27
2018-09-17T08:03:22.798Z,977.23
2018-09-17T08:04:32.660Z,977.16
2018-09-17T08:05:42.922Z,977.39
2018-09-17T08:06:53.406Z,977.33
2018-09-17T08:08:03.278Z,977.4
2018-09-17T08:09:13.772Z,977.47
2018-09-17T08:10:23.350Z,977.48
2018-09-17T08:11:33.476Z,977.53
2018-09-17T08:12:43.601Z,977.53
2018-09-17T08:13:53.728Z,977.55
2018-09-17T08:15:03.899Z,977.57
2018-09-17T08:16:14.024Z,977.62
2018-09-17T08:17:23.599Z,977.58
2018-09-17T08:18:33.177Z,977.6
2018-09-17T08:19:43.100Z,977.7
2018-09-17T08:20:53.499Z,977.59
2018-09-17T08:22:03.633Z,977.61
2018-09-17T08:23:13.762Z,977.63
2018-09-17T08:24:23.366Z,977.62
2018-09-17T08:25:33.863Z,977.66
2018-09-17T08:26:44.221Z,977.74
2018-09-17T08:27:54.078Z,977.75
2018-09-17T08:29:03.386Z,977.81
2018-09-17T08:30:13.525Z,977.81
2018-09-17T08:31:22.883Z,977.75
2018-09-17T08:32:32.911Z,977.8
2018-09-17T08:33:42.487Z,977.81
2018-09-17T08:34:52.614Z,977.79
2018-09-17T08:36:02.488Z,977.75
2018-09-17T08:37:12.367Z,977.79
2018-09-17T08:38:22.255Z,977.75
2018-09-17T08:39:32.092Z,977.85
2018-09-17T08:40:41.670Z,977.86
2018-09-17T08:41:51.798Z,977.86
2018-09-17T08:43:01.657Z,977.86
2018-09-17T08:44:11.506Z,977.87
2018-09-17T08:45:21.116Z,977.89
2018-09-17T08:46:31.078Z,977.9
2018-09-17T08:47:41.152Z,977.8
2018-09-17T08:48:51.010Z,977.83
2018-09-17T08:50:00.635Z,977.88
2018-09-17T08:51:10.519Z,977.91
2018-09-17T08:52:20.728Z,977.92
2018-09-17T08:53:30.641Z,977.97
2018-09-17T08:54:40.764Z,977.97
2018-09-17T08:55:50.935Z,978.04
2018-09-17T08:57:00.786Z,978.08
2018-09-17T08:58:10.376Z,978.08
2018-09-17T08:59:20.890Z,978.09
2018-09-17T09:00:30.737Z,978.09
2018-09-17T09:01:40.977Z,978.06
2018-09-17T09:02:50.590Z,978.04
2018-09-17T09:04:00.498Z,978.02
2018-09-17T09:05:10.523Z,977.97
2018-09-17T09:06:20.839Z,978.01
2018-09-17T09:07:30.762Z,978.02
2018-09-17T09:08:40.898Z,978.08
2018-09-17T09:09:51.040Z,978.09
2018-09-17T09:11:00.902Z,978.14
2018-09-17T09:12:10.793Z,978.21
2018-09-17T09:13:20.915Z,978.19
2018-09-17T09:14:30.505Z,978.23
2018-09-17T09:15:40.631Z,978.27
2018-09-17T09:16:50.483Z,978.35
2018-09-17T09:18:00.337Z,978.34
2018-09-17T09:19:09.638Z,978.35
2018-09-17T09:20:19.494Z,978.37
2018-09-17T09:21:28.526Z,978.33
2018-09-17T09:22:38.661Z,978.35
2018-09-17T09:23:48.514Z,978.39
2018-09-17T09:24:58.379Z,978.4
2018-09-17T09:26:08.263Z,978.4
2018-09-17T09:27:18.702Z,978.44
2018-09-17T09:28:28.554Z,978.41
2018-09-17T09:29:38.682Z,978.43
2018-09-17T09:30:48.569Z,978.46
2018-09-17T09:31:58.379Z,978.47
2018-09-17T09:33:08.239Z,978.49
2018-09-17T09:34:18.097Z,978.49
2018-09-17T09:35:27.405Z,978.58
2018-09-17T09:36:37.256Z,978.62
2018-09-17T09:37:46.601Z,978.63
2018-09-17T09:38:56.740Z,978.69
2018-09-17T09:40:06.600Z,978.66
2018-09-17T09:41:16.735Z,978.64
2018-09-17T09:42:26.521Z,978.66
2018-09-17T09:43:36.652Z,978.62
2018-09-17T09:44:46.784Z,978.57
2018-09-17T09:45:56.915Z,978.63
2018-09-17T09:47:06.773Z,978.54
2018-09-17T09:48:16.636Z,978.59
2018-09-17T09:49:26.493Z,978.56
2018-09-17T09:50:36.625Z,978.58
2018-09-17T09:51:46.777Z,978.54
2018-09-17T09:52:56.640Z,978.5
2018-09-17T09:54:06.505Z,978.48
2018-09-17T09:55:16.635Z,978.53
2018-09-17T09:56:26.767Z,978.52
2018-09-17T09:57:36.911Z,978.45
2018-09-17T09:58:47.044Z,978.47
2018-09-17T09:59:56.909Z,978.44
2018-09-17T10:01:06.502Z,978.39
2018-09-17T10:02:16.643Z,978.42
2018-09-17T10:03:26.787Z,978.41
2018-09-17T10:04:36.919Z,978.39
2018-09-17T10:05:46.506Z,978.39
2018-09-17T10:06:56.365Z,978.41
2018-09-17T10:08:05.950Z,978.42
2018-09-17T10:09:15.808Z,978.45
2018-09-17T10:10:25.115Z,978.48
2018-09-17T10:11:35.097Z,978.47
2018-09-17T10:12:45.630Z,978.57
2018-09-17T10:13:55.765Z,978.55
2018-09-17T10:15:05.896Z,978.53
2018-09-17T10:16:15.758Z,978.57
2018-09-17T10:17:25.894Z,978.6
2018-09-17T10:18:35.752Z,978.6
2018-09-17T10:19:45.892Z,978.62
2018-09-17T10:20:55.749Z,978.63
2018-09-17T10:22:05.884Z,978.67
2018-09-17T10:23:16.084Z,978.71
2018-09-17T10:24:25.949Z,978.71
2018-09-17T10:25:35.811Z,978.69
2018-09-17T10:26:45.668Z,978.68
2018-09-17T10:27:55.530Z,978.67
2018-09-17T10:29:05.662Z,978.65
2018-09-17T10:30:15.789Z,978.68
2018-09-17T10:31:25.942Z,978.69
2018-09-17T10:32:35.813Z,978.7
2018-09-17T10:33:45.680Z,978.74
2018-09-17T10:34:55.315Z,978.69
2018-09-17T10:36:05.193Z,978.68
2018-09-17T10:37:14.780Z,978.64
2018-09-17T10:38:24.911Z,978.63
2018-09-17T10:39:34.503Z,978.66
2018-09-17T10:40:44.477Z,978.68
2018-09-17T10:41:54.615Z,978.68
2018-09-17T10:43:04.492Z,978.7
2018-09-17T10:44:14.352Z,978.71
2018-09-17T10:45:24.495Z,978.74
2018-09-17T10:46:34.633Z,978.74
2018-09-17T10:47:44.503Z,978.77
2018-09-17T10:48:54.638Z,978.69
2018-09-17T10:50:03.946Z,978.63
2018-09-17T10:51:13.828Z,978.65
2018-09-17T10:52:23.686Z,978.61
2018-09-17T10:53:33.558Z,978.63
2018-09-17T10:54:43.140Z,978.59
2018-09-17T10:55:52.726Z,978.61
2018-09-17T10:57:02.854Z,978.59
2018-09-17T10:58:12.890Z,978.64
2018-09-17T10:59:22.750Z,978.68
2018-09-17T11:00:32.887Z,978.72
2018-09-17T11:01:43.030Z,978.74
2018-09-17T11:02:53.163Z,978.79
2018-09-17T11:04:03.305Z,978.82
2018-09-17T11:05:13.166Z,978.85
2018-09-17T11:06:22.753Z,978.8
2018-09-17T11:07:32.611Z,978.79
2018-09-17T11:08:42.519Z,978.79
2018-09-17T11:09:52.397Z,978.79
2018-09-17T11:11:02.537Z,978.82
2018-09-17T11:12:12.668Z,978.87
2018-09-17T11:13:22.527Z,978.83
2018-09-17T11:14:32.662Z,978.86
2018-09-17T11:15:42.523Z,978.86
2018-09-17T11:16:52.110Z,978.87
2018-09-17T11:18:01.698Z,978.84
2018-09-17T11:19:11.833Z,978.89
2018-09-17T11:20:21.973Z,978.92
2018-09-17T11:21:32.104Z,978.93
2018-09-17T11:22:41.692Z,978.96
2018-09-17T11:23:51.563Z,978.98
2018-09-17T11:25:01.720Z,979.02
2018-09-17T11:26:11.925Z,979.08
2018-09-17T11:27:22.111Z,979.17
2018-09-17T11:28:31.970Z,979.18
2018-09-17T11:29:42.103Z,979.2
2018-09-17T11:30:51.419Z,979.18
2018-09-17T11:32:01.005Z,979.2
2018-09-17T11:33:10.866Z,979.21
2018-09-17T11:34:20.999Z,979.19
2018-09-17T11:35:31.131Z,979.21
2018-09-17T11:36:41.268Z,979.24
2018-09-17T11:37:51.125Z,979.32
2018-09-17T11:39:01.263Z,979.23
2018-09-17T11:40:11.392Z,979.22
2018-09-17T11:41:20.976Z,979.25
2018-09-17T11:42:30.582Z,979.24
2018-09-17T11:43:40.716Z,979.19
2018-09-17T11:44:50.625Z,979.24
2018-09-17T11:46:00.765Z,979.27
2018-09-17T11:47:10.961Z,979.28
2018-09-17T11:48:21.179Z,979.29
2018-09-17T11:49:30.891Z,979.31
2018-09-17T11:50:41.070Z,979.27
2018-09-17T11:51:50.655Z,979.23
2018-09-17T11:53:00.786Z,979.2
2018-09-17T11:54:11.054Z,979.25
2018-09-17T11:55:21.188Z,979.29
2018-09-17T11:56:31.099Z,979.3
2018-09-17T11:57:40.966Z,979.43
2018-09-17T11:58:50.003Z,979.38
2018-09-17T11:59:59.589Z,979.37
2018-09-17T12:01:08.897Z,979.34
2018-09-17T12:02:19.216Z,979.42
2018-09-17T12:03:28.446Z,979.44
2018-09-17T12:04:38.585Z,979.46
2018-09-17T12:05:48.716Z,979.5
2018-09-17T12:06:58.852Z,979.49
2018-09-17T12:08:09.034Z,979.43
2018-09-17T12:09:19.260Z,979.43
2018-09-17T12:10:29.403Z,979.46
2018-09-17T12:11:38.986Z,979.44
2018-09-17T12:12:49.130Z,979.47
2018-09-17T12:13:59.315Z,979.49
2018-09-17T12:15:08.903Z,979.47
2018-09-17T12:16:19.035Z,979.51
2018-09-17T12:17:29.172Z,979.5
2018-09-17T12:18:38.759Z,979.53
2018-09-17T12:19:48.389Z,979.54
2018-09-17T12:20:58.522Z,979.46
2018-09-17T12:22:08.651Z,979.49
2018-09-17T12:23:17.962Z,979.5
2018-09-17T12:24:28.098Z,979.48
2018-09-17T12:25:38.037Z,979.49
2018-09-17T12:26:48.193Z,979.47
2018-09-17T12:27:57.781Z,979.56
2018-09-17T12:29:07.406Z,979.55
2018-09-17T12:30:16.989Z,979.57
2018-09-17T12:31:27.172Z,979.52
2018-09-17T12:32:37.035Z,979.55
2018-09-17T12:33:47.301Z,979.54
2018-09-17T12:34:57.749Z,979.48
2018-09-17T12:36:07.885Z,979.5
2018-09-17T12:37:18.072Z,979.54
2018-09-17T12:38:27.931Z,979.58
2018-09-17T12:39:37.796Z,979.51
2018-09-17T12:40:47.928Z,979.5
2018-09-17T12:41:57.512Z,979.52
2018-09-17T12:43:07.695Z,979.48
2018-09-17T12:44:17.831Z,979.48
2018-09-17T12:45:27.420Z,979.47
2018-09-17T12:46:37.008Z,979.48
2018-09-17T12:47:46.596Z,979.48
2018-09-17T12:48:56.520Z,979.49
2018-09-17T12:50:06.116Z,979.45
2018-09-17T12:51:16.252Z,979.47
2018-09-17T12:52:26.384Z,979.42
2018-09-17T12:53:36.524Z,979.45
2018-09-17T12:54:46.710Z,979.43
2018-09-17T12:55:56.630Z,979.45
2018-09-17T12:57:06.800Z,979.44
2018-09-17T12:58:17.202Z,979.41
2018-09-17T12:59:26.787Z,979.44
2018-09-17T13:00:36.974Z,979.48
2018-09-17T13:01:46.832Z,979.45
2018-09-17T13:02:56.967Z,979.47
2018-09-17T13:04:06.552Z,979.5
2018-09-17T13:05:16.421Z,979.5
2018-09-17T13:06:26.327Z,979.48
2018-09-17T13:07:36.481Z,979.53
2018-09-17T13:08:46.616Z,979.58
2018-09-17T13:09:56.755Z,979.63
2018-09-17T13:11:06.897Z,979.57
2018-09-17T13:12:16.810Z,979.67
2018-09-17T13:13:26.665Z,979.62
2018-09-17T13:14:36.260Z,979.69
2018-09-17T13:15:46.267Z,979.69
2018-09-17T13:16:56.152Z,979.82
2018-09-17T13:18:06.395Z,979.77
2018-09-17T13:19:16.544Z,979.83
2018-09-17T13:20:26.175Z,979.82
2018-09-17T13:21:36.315Z,979.82
2018-09-17T13:22:46.182Z,979.79
2018-09-17T13:23:55.817Z,979.87
2018-09-17T13:25:05.955Z,979.9
2018-09-17T13:26:15.815Z,979.93
2018-09-17T13:27:25.951Z,980
2018-09-17T13:28:36.087Z,980.09
2018-09-17T13:29:45.722Z,980.05
2018-09-17T13:30:55.863Z,980.13
2018-09-17T13:32:05.902Z,980.07
2018-09-17T13:33:16.002Z,979.96
2018-09-17T13:34:26.157Z,979.92
2018-09-17T13:35:35.798Z,979.88
2018-09-17T13:36:45.401Z,979.84
2018-09-17T13:37:54.975Z,979.87
2018-09-17T13:39:04.843Z,980
2018-09-17T13:40:14.709Z,979.94
2018-09-17T13:41:24.635Z,980.02
2018-09-17T13:42:34.877Z,979.91
2018-09-17T13:43:45.066Z,979.89
2018-09-17T13:44:55.284Z,979.88
2018-09-17T13:46:05.454Z,979.92
2018-09-17T13:47:15.394Z,979.89
2018-09-17T13:48:25.317Z,979.87
2018-09-17T13:49:35.267Z,979.83
2018-09-17T13:50:45.559Z,979.91
2018-09-17T13:51:55.174Z,979.88
2018-09-17T13:53:05.165Z,979.84
2018-09-17T13:54:15.239Z,979.87
2018-09-17T13:55:25.146Z,979.87
2018-09-17T13:56:35.321Z,979.75
2018-09-17T13:57:45.508Z,979.78
2018-09-17T13:58:55.468Z,979.77
2018-09-17T14:00:05.099Z,979.76
2018-09-17T14:01:14.724Z,979.76
2018-09-17T14:02:24.864Z,979.8
2018-09-17T14:03:35.072Z,979.84
2018-09-17T14:04:45.329Z,979.85
2018-09-17T14:05:55.507Z,979.87
2018-09-17T14:07:05.384Z,979.93
2018-09-17T14:08:15.245Z,979.92
2018-09-17T14:09:25.389Z,979.99
2018-09-17T14:10:35.304Z,979.92
2018-09-17T14:11:45.499Z,979.94
2018-09-17T14:12:55.393Z,980
2018-09-17T14:14:04.791Z,979.98
2018-09-17T14:15:14.986Z,979.99
2018-09-17T14:16:25.224Z,980
2018-09-17T14:17:34.880Z,980.03
2018-09-17T14:18:45.047Z,980.05
2018-09-17T14:19:54.913Z,980.04
2018-09-17T14:21:04.523Z,980.07
2018-09-17T14:22:14.739Z,980.05
2018-09-17T14:23:24.910Z,980.02
2018-09-17T14:24:34.813Z,980
2018-09-17T14:25:44.984Z,979.98
2018-09-17T14:26:54.958Z,979.99
2018-09-17T14:28:04.647Z,980.02
2018-09-17T14:29:14.549Z,979.99
2018-09-17T14:30:24.445Z,980.05
2018-09-17T14:31:34.590Z,980.02
2018-09-17T14:32:44.788Z,979.98
2018-09-17T14:33:55.546Z,979.98
2018-09-17T14:35:05.451Z,980.01
2018-09-17T14:36:15.842Z,980.01